Orleans, California
Current Conditions -  °F | °C
As of 6:53 PM on Saturday 25 Oct 2014 (Local Time) from KACV Reporting Station
Haze Haze  
Wind Chill: 56°   Ceiling: 8000
Heat Index: 56°   Visibility: 6mi
Dew Point: 54°   Wind: 7mph
Humidity: 93%   Direction: 160°SSE
Pressure: 30.04"   Gusts: NA
Location:  41.3°N, 123.54°W
Report Text: KACV 260153Z AUTO 16006KT 6SM BR FEW050 BKN080 OVC110 13/12 A3004 RMK AO2 RAB24E42 SLP176 P0000 T01330122
Loading
Personal Weather Stations






























Interactive Weather Map
Tropical Storm Tracking
New forecast layout! Learn more

10-Day Weather Forecast

Advertisements
Track Severe Weather on mobile